createdAt,value
2023-05-13T00:00:11.506Z,0.00
2023-05-13T00:01:10.070Z,0.00
2023-05-13T00:02:12.755Z,0.00
2023-05-13T00:03:10.293Z,0.00
2023-05-13T00:04:10.257Z,0.00
2023-05-13T00:05:11.679Z,0.00
2023-05-13T00:06:09.822Z,0.00
2023-05-13T00:07:09.778Z,0.00
2023-05-13T00:08:10.664Z,0.00
2023-05-13T00:09:09.758Z,0.00
2023-05-13T00:10:09.784Z,0.00
2023-05-13T00:11:09.740Z,0.00
2023-05-13T00:12:09.758Z,0.00
2023-05-13T00:13:09.807Z,0.00
2023-05-13T00:14:09.751Z,0.00
2023-05-13T00:15:09.721Z,0.00
2023-05-13T00:16:09.709Z,0.00
2023-05-13T00:17:09.725Z,0.00
2023-05-13T00:18:11.646Z,0.00
2023-05-13T00:19:09.759Z,0.00
2023-05-13T00:20:09.684Z,0.00
2023-05-13T00:21:58.952Z,0.00
2023-05-13T00:22:58.956Z,0.00
2023-05-13T00:24:00.063Z,0.00
2023-05-13T00:25:00.031Z,0.00
2023-05-13T00:26:00.042Z,0.00
2023-05-13T00:27:00.778Z,0.00
2023-05-13T00:28:00.059Z,0.00
2023-05-13T00:29:00.026Z,0.00
2023-05-13T00:30:01.802Z,0.00
2023-05-13T00:31:00.310Z,0.00
2023-05-13T00:32:00.018Z,0.00
2023-05-13T00:33:00.042Z,0.00
2023-05-13T00:33:59.956Z,0.00
2023-05-13T00:34:59.953Z,0.00
2023-05-13T00:35:59.957Z,0.00
2023-05-13T00:36:59.942Z,0.00
2023-05-13T00:37:59.938Z,0.00
2023-05-13T00:38:59.936Z,0.00
2023-05-13T00:39:59.913Z,0.00
2023-05-13T00:40:59.898Z,0.00
2023-05-13T00:41:59.942Z,0.00
2023-05-13T00:42:59.897Z,0.00
2023-05-13T00:43:59.874Z,0.00
2023-05-13T00:44:59.868Z,0.00
2023-05-13T00:45:59.900Z,0.00
2023-05-13T00:46:59.870Z,0.00
2023-05-13T00:47:59.903Z,0.00
2023-05-13T00:48:59.871Z,0.00
2023-05-13T00:49:59.843Z,0.00
2023-05-13T00:50:59.817Z,0.00
2023-05-13T00:51:59.809Z,0.00
2023-05-13T00:53:00.323Z,0.00
2023-05-13T00:54:00.816Z,0.00
2023-05-13T00:54:59.820Z,0.00
2023-05-13T00:55:59.808Z,0.00
2023-05-13T00:56:59.776Z,0.00
2023-05-13T00:57:59.768Z,0.00
2023-05-13T00:59:02.408Z,0.00
2023-05-13T00:59:59.748Z,0.00
2023-05-13T01:00:59.809Z,0.00
2023-05-13T01:01:59.769Z,0.00
2023-05-13T01:02:59.838Z,0.00
2023-05-13T01:03:59.755Z,0.00
2023-05-13T01:04:59.716Z,0.00
2023-05-13T01:05:59.745Z,0.00
2023-05-13T01:06:59.707Z,0.00
2023-05-13T01:07:59.696Z,0.00
2023-05-13T01:08:59.703Z,0.00
2023-05-13T01:09:59.693Z,0.00
2023-05-13T01:11:00.319Z,0.00
2023-05-13T01:11:59.733Z,0.00
2023-05-13T01:12:59.649Z,0.00
2023-05-13T01:13:59.641Z,0.00
2023-05-13T01:14:59.624Z,0.00
2023-05-13T01:15:59.613Z,0.00
2023-05-13T01:16:59.668Z,0.00
2023-05-13T01:17:59.651Z,0.00
2023-05-13T01:18:59.695Z,0.00
2023-05-13T01:19:59.601Z,0.00
2023-05-13T01:20:59.592Z,0.00
2023-05-13T01:21:59.574Z,0.00
2023-05-13T01:22:59.573Z,0.00
2023-05-13T01:23:59.630Z,0.00
2023-05-13T01:24:59.576Z,0.00
2023-05-13T01:25:59.560Z,0.00
2023-05-13T01:26:59.563Z,0.00
2023-05-13T01:27:59.538Z,0.00
2023-05-13T01:28:59.536Z,0.00
2023-05-13T01:30:00.391Z,0.00
2023-05-13T01:30:59.566Z,0.00
2023-05-13T01:31:59.574Z,0.00
2023-05-13T01:32:59.513Z,0.00
2023-05-13T01:33:59.479Z,0.00
2023-05-13T01:34:59.924Z,0.00
2023-05-13T01:35:59.488Z,0.00
2023-05-13T01:36:59.491Z,0.00
2023-05-13T01:38:01.480Z,0.00
2023-05-13T01:39:00.499Z,0.00
2023-05-13T01:39:59.445Z,0.00
2023-05-13T01:40:59.465Z,0.00
2023-05-13T01:41:59.457Z,0.00
2023-05-13T01:42:59.412Z,0.00
2023-05-13T01:43:59.401Z,0.00
2023-05-13T01:44:59.401Z,0.00
2023-05-13T01:46:00.497Z,0.00
2023-05-13T01:47:01.315Z,0.00
2023-05-13T01:48:00.911Z,0.00
2023-05-13T01:48:59.394Z,0.00
2023-05-13T01:49:59.365Z,0.00
2023-05-13T01:50:59.368Z,0.00
2023-05-13T01:51:59.348Z,0.00
2023-05-13T01:52:59.349Z,0.00
2023-05-13T01:53:59.357Z,0.00
2023-05-13T01:54:59.325Z,0.00
2023-05-13T01:55:59.312Z,0.00
2023-05-13T01:56:59.301Z,0.00
2023-05-13T01:58:00.305Z,0.00
2023-05-13T01:58:59.284Z,0.00
2023-05-13T01:59:59.293Z,0.00
2023-05-13T02:00:59.302Z,0.00
2023-05-13T02:01:59.278Z,0.00
2023-05-13T02:02:59.330Z,0.00
2023-05-13T02:03:59.475Z,0.00
2023-05-13T02:04:59.251Z,0.00
2023-05-13T02:06:00.923Z,0.00
2023-05-13T02:06:59.237Z,0.00
2023-05-13T02:07:59.239Z,0.00
2023-05-13T02:08:59.212Z,0.00
2023-05-13T02:09:59.220Z,0.00
2023-05-13T02:10:59.204Z,0.00
2023-05-13T02:11:59.188Z,0.00
2023-05-13T02:12:59.183Z,0.00
2023-05-13T02:13:59.169Z,0.00
2023-05-13T02:14:59.181Z,0.00
2023-05-13T02:15:59.189Z,0.00
2023-05-13T02:16:59.196Z,0.00
2023-05-13T02:17:59.847Z,0.00
2023-05-13T02:18:59.175Z,0.00
2023-05-13T02:20:00.164Z,0.00
2023-05-13T02:20:59.157Z,0.00
2023-05-13T02:21:59.095Z,0.00
2023-05-13T02:22:59.112Z,0.00
2023-05-13T02:23:59.166Z,0.00
2023-05-13T02:24:59.089Z,0.00
2023-05-13T02:25:59.098Z,0.00
2023-05-13T02:26:59.062Z,0.00
2023-05-13T02:27:59.063Z,0.00
2023-05-13T02:28:59.074Z,0.00
2023-05-13T02:29:59.074Z,0.00
2023-05-13T02:30:59.051Z,0.00
2023-05-13T02:31:59.055Z,0.00
2023-05-13T02:32:59.088Z,0.00
2023-05-13T02:33:59.008Z,0.00
2023-05-13T02:34:59.028Z,0.00
2023-05-13T02:35:59.011Z,0.00
2023-05-13T02:36:58.993Z,0.00
2023-05-13T02:37:59.005Z,0.00
2023-05-13T02:38:58.983Z,0.00
2023-05-13T02:39:59.005Z,0.00
2023-05-13T02:40:58.972Z,0.00
2023-05-13T02:41:58.959Z,0.00
2023-05-13T02:42:58.964Z,0.00
2023-05-13T02:43:58.967Z,0.00
2023-05-13T02:44:58.948Z,0.00
2023-05-13T02:45:58.991Z,0.00
2023-05-13T02:46:58.949Z,0.00
2023-05-13T02:47:58.968Z,0.00
2023-05-13T02:48:58.937Z,0.00
2023-05-13T02:49:58.925Z,0.00
2023-05-13T02:50:58.904Z,0.00
2023-05-13T02:51:58.882Z,0.00
2023-05-13T02:52:58.898Z,0.00
2023-05-13T02:53:58.876Z,0.00
2023-05-13T02:54:58.898Z,0.00
2023-05-13T02:55:58.844Z,0.00
2023-05-13T02:56:58.844Z,0.00
2023-05-13T02:57:58.849Z,0.00
2023-05-13T02:58:58.843Z,0.00
2023-05-13T02:59:58.831Z,0.00
2023-05-13T03:00:58.880Z,0.00
2023-05-13T03:01:58.814Z,0.00
2023-05-13T03:02:58.992Z,0.00
2023-05-13T03:03:58.783Z,0.00
2023-05-13T03:04:58.790Z,0.00
2023-05-13T03:05:58.795Z,0.00
2023-05-13T03:06:58.768Z,0.00
2023-05-13T03:07:58.751Z,0.00
2023-05-13T03:08:58.784Z,0.00
2023-05-13T03:09:58.752Z,0.00
2023-05-13T03:10:58.749Z,0.00
2023-05-13T03:11:58.748Z,0.00
2023-05-13T03:12:58.746Z,0.00
2023-05-13T03:13:58.715Z,0.00
2023-05-13T03:14:58.696Z,0.00
2023-05-13T03:15:58.750Z,0.00
2023-05-13T03:16:58.680Z,0.00
2023-05-13T03:17:58.741Z,0.00
2023-05-13T03:18:58.704Z,0.00
2023-05-13T03:19:58.683Z,0.00
2023-05-13T03:20:58.660Z,0.00
2023-05-13T03:21:58.634Z,0.00
2023-05-13T03:22:58.644Z,0.00
2023-05-13T03:23:58.650Z,0.00
2023-05-13T03:24:58.662Z,0.00
2023-05-13T03:25:58.618Z,0.00
2023-05-13T03:26:58.630Z,0.00
2023-05-13T03:27:59.345Z,0.00
2023-05-13T03:28:58.601Z,0.00
2023-05-13T03:29:58.580Z,0.00
2023-05-13T03:30:58.589Z,0.00
2023-05-13T03:31:59.449Z,0.00
2023-05-13T03:32:58.602Z,0.00
2023-05-13T03:33:58.570Z,0.00
2023-05-13T03:34:58.545Z,0.00
2023-05-13T03:35:58.526Z,0.00
2023-05-13T03:36:58.533Z,5.62
2023-05-13T03:37:58.529Z,5.62
2023-05-13T03:38:58.500Z,5.62
2023-05-13T03:39:58.509Z,5.62
2023-05-13T03:40:58.483Z,5.62
2023-05-13T03:41:59.477Z,5.62
2023-05-13T03:42:58.501Z,5.62
2023-05-13T03:43:58.482Z,5.62
2023-05-13T03:45:01.428Z,5.62
2023-05-13T03:45:58.441Z,5.62
2023-05-13T03:46:58.533Z,5.62
2023-05-13T03:47:58.474Z,11.25
2023-05-13T03:48:58.459Z,11.25
2023-05-13T03:49:58.426Z,11.25
2023-05-13T03:50:58.434Z,11.25
2023-05-13T03:51:58.408Z,11.25
2023-05-13T03:52:58.388Z,11.25
2023-05-13T03:53:58.384Z,16.88
2023-05-13T03:54:58.393Z,16.88
2023-05-13T03:55:58.396Z,16.88
2023-05-13T03:56:58.403Z,16.88
2023-05-13T03:57:58.355Z,16.88
2023-05-13T03:58:59.351Z,16.88
2023-05-13T03:59:58.343Z,16.88
2023-05-13T04:00:58.943Z,22.50
2023-05-13T04:01:58.392Z,22.50
2023-05-13T04:02:58.455Z,28.12
2023-05-13T04:03:58.353Z,28.12
2023-05-13T04:04:58.398Z,28.12
2023-05-13T04:05:58.302Z,28.12
2023-05-13T04:06:58.291Z,28.12
2023-05-13T04:07:58.300Z,33.75
2023-05-13T04:08:58.360Z,33.75
2023-05-13T04:09:58.284Z,33.75
2023-05-13T04:10:58.294Z,33.75
2023-05-13T04:11:58.242Z,33.75
2023-05-13T04:12:58.252Z,39.38
2023-05-13T04:13:58.318Z,39.38
2023-05-13T04:14:58.221Z,39.38
2023-05-13T04:15:58.863Z,39.38
2023-05-13T04:16:59.309Z,45.00
2023-05-13T04:17:58.268Z,45.00
2023-05-13T04:19:00.009Z,50.62
2023-05-13T04:19:58.193Z,50.62
2023-05-13T04:20:58.203Z,50.62
2023-05-13T04:21:58.174Z,50.62
2023-05-13T04:22:58.194Z,56.25
2023-05-13T04:23:58.194Z,56.25
2023-05-13T04:24:58.161Z,61.88
2023-05-13T04:25:58.164Z,67.50
2023-05-13T04:26:58.985Z,67.50
2023-05-13T04:27:58.131Z,73.12
2023-05-13T04:28:58.129Z,73.12
2023-05-13T04:29:58.116Z,78.75
2023-05-13T04:30:58.113Z,90.00
2023-05-13T04:31:58.180Z,84.38
2023-05-13T04:32:58.140Z,90.00
2023-05-13T04:33:58.076Z,101.25
2023-05-13T04:34:58.081Z,118.12
2023-05-13T04:35:58.072Z,95.62
2023-05-13T04:36:58.076Z,73.12
2023-05-13T04:37:58.071Z,101.25
2023-05-13T04:38:58.059Z,123.75
2023-05-13T04:39:58.038Z,129.38
2023-05-13T04:40:58.024Z,112.50
2023-05-13T04:41:58.026Z,101.25
2023-05-13T04:43:16.944Z,112.50
2023-05-13T04:43:58.014Z,118.12
2023-05-13T04:44:58.006Z,112.50
2023-05-13T04:45:58.067Z,106.88
2023-05-13T04:46:57.990Z,106.88
2023-05-13T04:47:58.732Z,112.50
2023-05-13T04:48:58.991Z,106.88
2023-05-13T04:49:57.965Z,106.88
2023-05-13T04:50:57.975Z,95.62
2023-05-13T04:51:57.940Z,95.62
2023-05-13T04:52:57.942Z,95.62
2023-05-13T04:53:57.952Z,95.62
2023-05-13T04:54:57.930Z,95.62
2023-05-13T04:55:57.907Z,90.00
2023-05-13T04:56:58.898Z,84.38
2023-05-13T04:57:57.903Z,84.38
2023-05-13T04:58:59.466Z,78.75
2023-05-13T04:59:57.893Z,78.75
2023-05-13T05:00:57.896Z,78.75
2023-05-13T05:01:57.927Z,73.12
2023-05-13T05:02:57.876Z,73.12
2023-05-13T05:03:57.964Z,67.50
2023-05-13T05:04:57.880Z,61.88
2023-05-13T05:05:59.372Z,61.88
2023-05-13T05:06:57.844Z,67.50
2023-05-13T05:07:57.835Z,67.50
2023-05-13T05:08:57.850Z,67.50
2023-05-13T05:09:57.796Z,67.50
2023-05-13T05:10:57.809Z,73.12
2023-05-13T05:11:57.790Z,78.75
2023-05-13T05:12:57.794Z,78.75
2023-05-13T05:13:57.777Z,78.75
2023-05-13T05:14:58.471Z,84.38
2023-05-13T05:15:57.764Z,84.38
2023-05-13T05:16:57.802Z,90.00
2023-05-13T05:17:58.085Z,95.62
2023-05-13T05:18:57.834Z,106.88
2023-05-13T05:19:57.733Z,106.88
2023-05-13T05:20:58.879Z,112.50
2023-05-13T05:21:57.721Z,112.50
2023-05-13T05:22:57.737Z,112.50
2023-05-13T05:23:57.703Z,112.50
2023-05-13T05:24:57.679Z,112.50
2023-05-13T05:26:07.934Z,123.75
2023-05-13T05:26:59.672Z,129.38
2023-05-13T05:27:57.668Z,135.00
2023-05-13T05:28:57.665Z,140.62
2023-05-13T05:29:57.672Z,163.12
2023-05-13T05:30:57.644Z,157.50
2023-05-13T05:31:57.848Z,163.12
2023-05-13T05:32:57.716Z,168.75
2023-05-13T05:33:57.625Z,174.38
2023-05-13T05:34:57.603Z,180.00
2023-05-13T05:35:57.606Z,185.62
2023-05-13T05:36:57.595Z,191.25
2023-05-13T05:37:57.587Z,196.88
2023-05-13T05:38:57.580Z,208.12
2023-05-13T05:39:57.562Z,281.25
2023-05-13T05:40:57.566Z,286.88
2023-05-13T05:41:57.541Z,258.75
2023-05-13T05:42:57.547Z,264.38
2023-05-13T05:43:57.558Z,264.38
2023-05-13T05:44:57.537Z,275.62
2023-05-13T05:45:57.523Z,292.50
2023-05-13T05:46:57.522Z,331.88
2023-05-13T05:48:00.650Z,427.50
2023-05-13T05:48:57.499Z,444.38
2023-05-13T05:49:57.512Z,720.00
2023-05-13T05:50:57.491Z,928.12
2023-05-13T05:51:57.480Z,933.75
2023-05-13T05:52:57.469Z,1288.12
2023-05-13T05:53:57.492Z,945.00
2023-05-13T05:54:57.449Z,928.12
2023-05-13T05:55:57.442Z,691.88
2023-05-13T05:56:57.434Z,613.12
2023-05-13T05:57:57.438Z,585.00
2023-05-13T05:58:57.484Z,562.50
2023-05-13T05:59:57.399Z,523.12
2023-05-13T06:00:58.419Z,534.38
2023-05-13T06:01:57.430Z,466.88
2023-05-13T06:02:57.487Z,438.75
2023-05-13T06:03:57.428Z,450.00
2023-05-13T06:04:58.037Z,523.12
2023-05-13T06:05:57.439Z,928.12
2023-05-13T06:06:57.380Z,540.00
2023-05-13T06:07:57.889Z,556.88
2023-05-13T06:08:57.338Z,888.75
2023-05-13T06:09:57.337Z,1884.38
2023-05-13T06:10:57.316Z,1648.12
2023-05-13T06:11:57.303Z,1614.38
2023-05-13T06:12:57.328Z,1276.88
2023-05-13T06:13:57.316Z,1181.25
2023-05-13T06:14:57.282Z,1524.38
2023-05-13T06:15:57.352Z,1535.62
2023-05-13T06:16:57.276Z,1546.88
2023-05-13T06:17:57.345Z,1541.25
2023-05-13T06:18:58.009Z,1546.88
2023-05-13T06:19:57.278Z,1552.50
2023-05-13T06:20:57.253Z,1546.88
2023-05-13T06:21:58.975Z,1541.25
2023-05-13T06:22:58.972Z,1586.25
2023-05-13T06:23:57.221Z,1575.00
2023-05-13T06:24:57.210Z,1591.88
2023-05-13T06:25:57.215Z,1586.25
2023-05-13T06:26:57.217Z,1603.12
2023-05-13T06:27:57.196Z,1586.25
2023-05-13T06:28:57.176Z,1389.38
2023-05-13T06:29:57.166Z,1102.50
2023-05-13T06:30:57.211Z,1299.38
2023-05-13T06:31:57.172Z,1186.88
2023-05-13T06:33:02.117Z,1023.75
2023-05-13T06:33:58.151Z,618.75
2023-05-13T06:34:57.520Z,590.62
2023-05-13T06:35:57.140Z,590.62
2023-05-13T06:36:57.125Z,495.00
2023-05-13T06:37:57.109Z,478.12
2023-05-13T06:38:57.104Z,444.38
2023-05-13T06:39:57.110Z,421.88
2023-05-13T06:40:57.135Z,399.38
2023-05-13T06:41:57.084Z,388.12
2023-05-13T06:42:57.073Z,371.25
2023-05-13T06:43:57.061Z,354.38
2023-05-13T06:44:57.059Z,337.50
2023-05-13T06:45:58.906Z,326.25
2023-05-13T06:46:57.084Z,320.62
2023-05-13T06:47:57.058Z,315.00
2023-05-13T06:48:57.049Z,303.75
2023-05-13T06:49:57.055Z,298.12
2023-05-13T06:50:57.030Z,292.50
2023-05-13T06:51:57.011Z,286.88
2023-05-13T06:52:58.002Z,281.25
2023-05-13T06:53:56.989Z,281.25
2023-05-13T06:54:56.987Z,275.62
2023-05-13T06:55:56.967Z,275.62
2023-05-13T06:56:56.999Z,275.62
2023-05-13T06:57:56.977Z,281.25
2023-05-13T06:58:56.965Z,286.88
2023-05-13T06:59:57.922Z,298.12
2023-05-13T07:00:56.973Z,309.38
2023-05-13T07:01:56.933Z,326.25
2023-05-13T07:02:56.976Z,354.38
2023-05-13T07:03:56.950Z,382.50
2023-05-13T07:04:58.486Z,416.25
2023-05-13T07:05:56.879Z,455.62
2023-05-13T07:06:56.889Z,478.12
2023-05-13T07:07:56.869Z,506.25
2023-05-13T07:08:56.883Z,540.00
2023-05-13T07:09:56.898Z,579.38
2023-05-13T07:10:56.857Z,613.12
2023-05-13T07:11:56.841Z,601.88
2023-05-13T07:12:56.822Z,573.75
2023-05-13T07:13:56.828Z,551.25
2023-05-13T07:14:56.816Z,534.38
2023-05-13T07:15:56.793Z,517.50
2023-05-13T07:16:56.884Z,517.50
2023-05-13T07:17:56.877Z,534.38
2023-05-13T07:18:56.827Z,562.50
2023-05-13T07:19:56.807Z,596.25
2023-05-13T07:20:56.771Z,652.50
2023-05-13T07:21:56.761Z,708.75
2023-05-13T07:22:56.752Z,742.50
2023-05-13T07:23:57.417Z,815.62
2023-05-13T07:24:56.739Z,956.25
2023-05-13T07:25:56.722Z,1068.75
2023-05-13T07:26:56.702Z,961.88
2023-05-13T07:27:56.710Z,1237.50
2023-05-13T07:28:56.720Z,1080.00
2023-05-13T07:29:57.509Z,1423.12
2023-05-13T07:30:56.734Z,1794.38
2023-05-13T07:31:57.522Z,1614.38
2023-05-13T07:32:56.756Z,1676.25
2023-05-13T07:33:56.656Z,1721.25
2023-05-13T07:34:56.651Z,1743.75
2023-05-13T07:35:56.627Z,1861.88
2023-05-13T07:36:56.632Z,2143.12
2023-05-13T07:37:56.615Z,2176.88
2023-05-13T07:38:56.617Z,2205.00
2023-05-13T07:39:56.632Z,2233.12
2023-05-13T07:40:56.608Z,2300.62
2023-05-13T07:41:56.605Z,2295.00
2023-05-13T07:42:56.578Z,2036.25
2023-05-13T07:43:56.576Z,1057.50
2023-05-13T07:44:56.604Z,2182.50
2023-05-13T07:45:56.572Z,1029.38
2023-05-13T07:46:56.633Z,1603.12
2023-05-13T07:47:56.608Z,1378.12
2023-05-13T07:48:56.566Z,1113.75
2023-05-13T07:49:56.587Z,1035.00
2023-05-13T07:50:56.536Z,725.62
2023-05-13T07:51:56.532Z,933.75
2023-05-13T07:52:56.532Z,916.88
2023-05-13T07:53:56.509Z,691.88
2023-05-13T07:54:56.523Z,630.00
2023-05-13T07:55:57.448Z,720.00
2023-05-13T07:56:56.475Z,686.25
2023-05-13T07:57:57.032Z,770.62
2023-05-13T07:58:56.473Z,748.12
2023-05-13T07:59:56.478Z,697.50
2023-05-13T08:00:56.469Z,590.62
2023-05-13T08:01:56.456Z,708.75
2023-05-13T08:02:56.591Z,675.00
2023-05-13T08:03:56.746Z,652.50
2023-05-13T08:04:56.484Z,635.62
2023-05-13T08:05:56.427Z,624.38
2023-05-13T08:06:57.422Z,613.12
2023-05-13T08:07:56.401Z,607.50
2023-05-13T08:08:56.384Z,590.62
2023-05-13T08:09:56.379Z,585.00
2023-05-13T08:10:56.381Z,579.38
2023-05-13T08:11:56.388Z,534.38
2023-05-13T08:12:56.357Z,534.38
2023-05-13T08:13:56.365Z,528.75
2023-05-13T08:14:56.345Z,528.75
2023-05-13T08:15:56.419Z,511.88
2023-05-13T08:16:56.377Z,511.88
2023-05-13T08:17:56.411Z,506.25
2023-05-13T08:18:56.339Z,495.00
2023-05-13T08:19:57.327Z,483.75
2023-05-13T08:20:56.319Z,478.12
2023-05-13T08:21:56.309Z,500.62
2023-05-13T08:22:56.348Z,472.50
2023-05-13T08:23:56.265Z,466.88
2023-05-13T08:24:56.255Z,455.62
2023-05-13T08:25:56.262Z,455.62
2023-05-13T08:26:56.271Z,450.00
2023-05-13T08:27:56.961Z,450.00
2023-05-13T08:28:56.252Z,444.38
2023-05-13T08:29:56.240Z,444.38
2023-05-13T08:30:57.056Z,438.75
2023-05-13T08:31:56.275Z,438.75
2023-05-13T08:32:57.077Z,438.75
2023-05-13T08:33:56.940Z,433.12
2023-05-13T08:34:56.193Z,433.12
2023-05-13T08:35:56.198Z,427.50
2023-05-13T08:36:56.185Z,427.50
2023-05-13T08:37:56.181Z,421.88
2023-05-13T08:38:56.449Z,416.25
2023-05-13T08:39:56.150Z,410.62
2023-05-13T08:40:56.211Z,410.62
2023-05-13T08:41:56.158Z,410.62
2023-05-13T08:42:56.140Z,410.62
2023-05-13T08:43:57.961Z,405.00
2023-05-13T08:44:56.122Z,405.00
2023-05-13T08:45:56.152Z,405.00
2023-05-13T08:46:56.090Z,405.00
2023-05-13T08:47:56.116Z,410.62
2023-05-13T08:48:56.114Z,410.62
2023-05-13T08:49:56.082Z,410.62
2023-05-13T08:50:56.061Z,405.00
2023-05-13T08:51:57.079Z,399.38
2023-05-13T08:52:56.086Z,393.75
2023-05-13T08:53:56.025Z,382.50
2023-05-13T08:54:58.554Z,382.50
2023-05-13T08:55:56.023Z,382.50
2023-05-13T08:56:56.034Z,371.25
2023-05-13T08:57:57.981Z,371.25
2023-05-13T08:58:56.064Z,365.62
2023-05-13T08:59:55.989Z,360.00
2023-05-13T09:00:57.014Z,354.38
2023-05-13T09:01:55.999Z,348.75
2023-05-13T09:02:56.070Z,348.75
2023-05-13T09:03:55.969Z,348.75
2023-05-13T09:04:56.165Z,343.12
2023-05-13T09:05:55.955Z,343.12
2023-05-13T09:06:55.960Z,348.75
2023-05-13T09:07:55.931Z,348.75
2023-05-13T09:08:55.930Z,343.12
2023-05-13T09:09:55.918Z,337.50
2023-05-13T09:10:55.932Z,337.50
2023-05-13T09:11:55.929Z,337.50
2023-05-13T09:12:55.897Z,337.50
2023-05-13T09:13:55.897Z,337.50
2023-05-13T09:14:55.905Z,331.88
2023-05-13T09:15:55.916Z,331.88
2023-05-13T09:16:55.855Z,331.88
2023-05-13T09:17:55.893Z,331.88
2023-05-13T09:18:56.008Z,331.88
2023-05-13T09:19:56.626Z,326.25
2023-05-13T09:20:55.918Z,326.25
2023-05-13T09:21:55.830Z,326.25
2023-05-13T09:22:55.833Z,326.25
2023-05-13T09:23:55.819Z,326.25
2023-05-13T09:24:55.828Z,326.25
2023-05-13T09:25:56.552Z,326.25
2023-05-13T09:26:56.461Z,326.25
2023-05-13T09:27:55.812Z,320.62
2023-05-13T09:28:57.548Z,320.62
2023-05-13T09:29:55.760Z,320.62
2023-05-13T09:30:55.860Z,326.25
2023-05-13T09:31:55.771Z,320.62
2023-05-13T09:32:55.773Z,326.25
2023-05-13T09:33:55.760Z,326.25
2023-05-13T09:34:55.807Z,337.50
2023-05-13T09:35:56.482Z,315.00
2023-05-13T09:36:55.734Z,309.38
2023-05-13T09:37:56.560Z,309.38
2023-05-13T09:38:55.703Z,309.38
2023-05-13T09:39:55.690Z,303.75
2023-05-13T09:40:55.901Z,303.75
2023-05-13T09:41:55.706Z,303.75
2023-05-13T09:42:55.722Z,315.00
2023-05-13T09:43:55.730Z,315.00
2023-05-13T09:44:55.670Z,315.00
2023-05-13T09:45:55.665Z,315.00
2023-05-13T09:46:55.666Z,309.38
2023-05-13T09:47:55.707Z,309.38
2023-05-13T09:48:57.070Z,303.75
2023-05-13T09:49:56.623Z,298.12
2023-05-13T09:50:57.570Z,298.12
2023-05-13T09:51:56.613Z,298.12
2023-05-13T09:52:55.597Z,298.12
2023-05-13T09:53:55.589Z,298.12
2023-05-13T09:54:55.550Z,298.12
2023-05-13T09:56:43.979Z,303.75
2023-05-13T09:57:43.983Z,303.75
2023-05-13T09:58:43.998Z,315.00
2023-05-13T09:59:45.069Z,315.00
2023-05-13T10:00:45.382Z,315.00
2023-05-13T10:01:45.161Z,309.38
2023-05-13T10:02:45.105Z,286.88
2023-05-13T10:03:45.103Z,298.12
2023-05-13T10:04:45.084Z,337.50
2023-05-13T10:05:45.009Z,348.75
2023-05-13T10:06:45.003Z,360.00
2023-05-13T10:07:45.041Z,371.25
2023-05-13T10:08:44.998Z,382.50
2023-05-13T10:09:45.046Z,365.62
2023-05-13T10:10:47.882Z,382.50
2023-05-13T10:11:45.969Z,399.38
2023-05-13T10:12:44.997Z,405.00
2023-05-13T10:13:44.983Z,393.75
2023-05-13T10:14:44.979Z,376.88
2023-05-13T10:15:44.938Z,360.00
2023-05-13T10:16:44.962Z,343.12
2023-05-13T10:17:44.980Z,343.12
2023-05-13T10:18:46.023Z,337.50
2023-05-13T10:19:45.914Z,292.50
2023-05-13T10:20:44.930Z,343.12
2023-05-13T10:21:44.902Z,348.75
2023-05-13T10:22:44.971Z,348.75
2023-05-13T10:23:44.936Z,360.00
2023-05-13T10:24:44.868Z,348.75
2023-05-13T10:25:44.981Z,393.75
2023-05-13T10:26:46.366Z,371.25
2023-05-13T10:27:44.881Z,354.38
2023-05-13T10:28:46.446Z,354.38
2023-05-13T10:29:44.842Z,365.62
2023-05-13T10:30:44.851Z,382.50
2023-05-13T10:31:44.858Z,365.62
2023-05-13T10:32:44.864Z,360.00
2023-05-13T10:33:44.801Z,360.00
2023-05-13T10:34:44.777Z,354.38
2023-05-13T10:35:44.787Z,360.00
2023-05-13T10:36:44.825Z,360.00
2023-05-13T10:37:44.802Z,354.38
2023-05-13T10:38:44.769Z,348.75
2023-05-13T10:39:44.758Z,343.12
2023-05-13T10:40:44.741Z,348.75
2023-05-13T10:41:44.719Z,343.12
2023-05-13T10:42:44.742Z,343.12
2023-05-13T10:43:44.728Z,337.50
2023-05-13T10:44:44.711Z,320.62
2023-05-13T10:45:44.719Z,315.00
2023-05-13T10:46:44.797Z,320.62
2023-05-13T10:47:44.775Z,326.25
2023-05-13T10:48:44.712Z,331.88
2023-05-13T10:49:44.670Z,331.88
2023-05-13T10:50:44.740Z,326.25
2023-05-13T10:51:44.679Z,320.62
2023-05-13T10:52:44.654Z,315.00
2023-05-13T10:53:44.651Z,315.00
2023-05-13T10:54:45.359Z,315.00
2023-05-13T10:55:44.614Z,326.25
2023-05-13T10:56:44.618Z,348.75
2023-05-13T10:57:46.378Z,348.75
2023-05-13T10:58:44.643Z,354.38
2023-05-13T10:59:44.596Z,343.12
2023-05-13T11:00:44.579Z,337.50
2023-05-13T11:01:45.489Z,326.25
2023-05-13T11:02:46.567Z,326.25
2023-05-13T11:03:44.633Z,331.88
2023-05-13T11:04:44.552Z,348.75
2023-05-13T11:05:46.317Z,360.00
2023-05-13T11:06:44.569Z,371.25
2023-05-13T11:07:44.548Z,371.25
2023-05-13T11:08:44.521Z,348.75
2023-05-13T11:09:44.552Z,326.25
2023-05-13T11:10:44.536Z,337.50
2023-05-13T11:11:47.377Z,337.50
2023-05-13T11:12:44.551Z,337.50
2023-05-13T11:13:44.528Z,337.50
2023-05-13T11:14:44.488Z,337.50
2023-05-13T11:15:44.536Z,337.50
2023-05-13T11:16:44.647Z,320.62
2023-05-13T11:17:46.423Z,303.75
2023-05-13T11:18:44.490Z,292.50
2023-05-13T11:19:44.453Z,292.50
2023-05-13T11:20:52.137Z,247.50
2023-05-13T11:21:46.459Z,241.88
2023-05-13T11:22:44.417Z,236.25
2023-05-13T11:23:44.435Z,236.25
2023-05-13T11:24:44.404Z,241.88
2023-05-13T11:25:44.411Z,247.50
2023-05-13T11:26:44.384Z,241.88
2023-05-13T11:27:46.991Z,247.50
2023-05-13T11:28:44.380Z,303.75
2023-05-13T11:29:44.393Z,309.38
2023-05-13T11:30:45.366Z,309.38
2023-05-13T11:31:44.451Z,315.00
2023-05-13T11:33:31.779Z,309.38
2023-05-13T11:34:33.601Z,292.50
2023-05-13T11:35:31.773Z,309.38
2023-05-13T11:36:32.893Z,303.75
2023-05-13T11:37:32.872Z,264.38
2023-05-13T11:38:32.859Z,298.12
2023-05-13T11:39:32.873Z,298.12
2023-05-13T11:40:32.842Z,303.75
2023-05-13T11:41:32.848Z,309.38
2023-05-13T11:42:32.835Z,309.38
2023-05-13T11:43:34.805Z,309.38
2023-05-13T11:44:33.886Z,292.50
2023-05-13T11:45:32.838Z,275.62
2023-05-13T11:46:33.721Z,264.38
2023-05-13T11:47:32.801Z,219.38
2023-05-13T11:48:32.769Z,230.62
2023-05-13T11:49:32.764Z,298.12
2023-05-13T11:50:32.766Z,298.12
2023-05-13T11:51:32.750Z,298.12
2023-05-13T11:52:32.784Z,298.12
2023-05-13T11:53:32.765Z,286.88
2023-05-13T11:54:32.745Z,286.88
2023-05-13T11:55:32.749Z,286.88
2023-05-13T11:56:32.703Z,286.88
2023-05-13T11:57:32.777Z,292.50
2023-05-13T11:58:32.689Z,303.75
2023-05-13T11:59:45.277Z,309.38
2023-05-13T12:00:34.727Z,298.12
2023-05-13T12:01:32.680Z,286.88
2023-05-13T12:02:32.729Z,270.00
2023-05-13T12:03:33.681Z,264.38
2023-05-13T12:04:32.666Z,264.38
2023-05-13T12:05:32.666Z,270.00
2023-05-13T12:06:32.646Z,281.25
2023-05-13T12:07:32.654Z,292.50
2023-05-13T12:08:32.619Z,292.50
2023-05-13T12:09:32.598Z,298.12
2023-05-13T12:10:32.599Z,303.75
2023-05-13T12:11:32.615Z,315.00
2023-05-13T12:12:32.611Z,315.00
2023-05-13T12:13:32.580Z,309.38
2023-05-13T12:14:32.581Z,309.38
2023-05-13T12:15:32.579Z,281.25
2023-05-13T12:16:32.599Z,264.38
2023-05-13T12:17:32.617Z,247.50
2023-05-13T12:18:32.560Z,264.38
2023-05-13T12:19:32.542Z,258.75
2023-05-13T12:20:32.532Z,258.75
2023-05-13T12:21:33.528Z,258.75
2023-05-13T12:22:32.527Z,253.12
2023-05-13T12:23:32.556Z,247.50
2023-05-13T12:24:32.502Z,247.50
2023-05-13T12:25:32.506Z,247.50
2023-05-13T12:26:32.471Z,253.12
2023-05-13T12:27:32.471Z,253.12
2023-05-13T12:28:32.509Z,253.12
2023-05-13T12:29:32.480Z,253.12
2023-05-13T12:30:32.456Z,264.38
2023-05-13T12:31:32.461Z,270.00
2023-05-13T12:32:33.510Z,270.00
2023-05-13T12:33:32.474Z,264.38
2023-05-13T12:34:34.149Z,253.12
2023-05-13T12:35:32.399Z,258.75
2023-05-13T12:36:32.496Z,247.50
2023-05-13T12:37:32.419Z,253.12
2023-05-13T12:38:34.301Z,253.12
2023-05-13T12:39:33.234Z,258.75
2023-05-13T12:40:32.410Z,258.75
2023-05-13T12:41:32.439Z,247.50
2023-05-13T12:42:32.365Z,270.00
2023-05-13T12:43:32.361Z,281.25
2023-05-13T12:44:32.413Z,270.00
2023-05-13T12:45:32.412Z,303.75